Prairie City, OR (97869)

10:56 PM PDT on August 29, 2014 (GMT -0700)
Grant County Regional | Change Station
CLOSE
Current Station
Airport
Location: Grant County,
Elevation: 3698 ft
Nearby Weather Stations

Elev 3698 ft 44.40 °N, 118.96 °W | Updated 21 minutes ago

Clear
Clear
64 °F
Feels Like 64 °F
N
5
Wind Variable Wind from NW

Today
High -- | Low -- °F
--% Chance of Precip.
Yesterday
High -- | Low -- °F
Precip. -- in
6:14 AM 7:36 PM
Waxing Crescent, 19% visible
Pressure 29.98 in
Visibility 10.0 miles
Clouds Clear
Dew Point 44 °F
Humidity 47%
Rainfall 0.00 in
Snow Depth 0 in
UV 0 out of 12
Pollen 6.00 out of 12
Air Quality Not available.
Flu Activity Not available.
METAR KGCD 300535Z AUTO 32004KT 10SM CLR 18/07 A2998 RMK AO2 T01800065

More Conditions Fewer Conditions

Pressure 29.98 in
Visibility 10.0 miles
Clouds Clear
Dew Point 44 °F
Humidity 47%
Rainfall 0.00 in
Snow Depth 0 in
UV 0 out of 12
Pollen 6.00 out of 12
Air Quality Not available.
Flu Activity Not available.
METAR KGCD 300535Z AUTO 32004KT 10SM CLR 18/07 A2998 RMK AO2 T01800065

More Conditions Fewer Conditions

10-Day Weather Forecast

Almanac

Astronomy

Aug. 29, 2014 Rise Set
Actual Time 6:14 AM PDT 7:36 PM PDT
Civil Twilight 5:43 AM PDT 8:06 PM PDT
Nautical Twilight 5:07 AM PDT 8:42 PM PDT
Astronomical Twilight 4:28 AM PDT 9:21 PM PDT
Moon 10:18 AM PDT (8/29) 9:25 PM PDT (8/29)
Length of Visible Light 14h 22m
Length of Day
13h 22m
Tomorrow will be 2m 56s shorter.
Waxing Crescent, 19% of the Moon is Illuminated
Aug 30
Waxing Crescent
Sep 2
First Quarter
Sep 8
Full
Sep 15
Last Quarter
Sep 24
New

Yesterday's Extremes

State Highs State Lows

Community

WunderPhotos

Upload Photos

1,748,467 photos uploaded!

Nearby

Snow Depth

Station Depth Elevation
Blue Mountain Spring 0 in 5900 ft
Tipton 0 in 5150 ft
Bourne 3 in 5800 ft
County Line 0 in 4800 ft
Wolf Creek 0 in 5700 ft

Earthquake Activity

City Distance Mag. Time & Date
No recent earthquake activity has been reported nearby.
Minimum magnitude displayed is 2.5.

Coastal Water Temperatures

Place Temperature
No Stations Reporting

Nearby Weather Stations